createdAt,value
2018-07-04T00:01:24.611Z,101177.88
2018-07-04T00:04:30.168Z,101175.28
2018-07-04T00:07:35.207Z,101174.83
2018-07-04T00:10:40.835Z,101174.77
2018-07-04T00:13:46.113Z,101172.05
2018-07-04T00:16:51.828Z,101174.09
2018-07-04T00:19:57.397Z,101165.60
2018-07-04T00:23:02.798Z,101164.95
2018-07-04T00:26:08.276Z,101162.81
2018-07-04T00:29:13.781Z,101180.99
2018-07-04T00:32:19.257Z,101179.86
2018-07-04T00:35:24.509Z,101178.53
2018-07-04T00:38:29.797Z,101174.75
2018-07-04T00:41:35.495Z,101175.42
2018-07-04T00:44:41.199Z,101169.65
2018-07-04T00:47:46.623Z,101175.32
2018-07-04T00:50:54.989Z,101171.56
2018-07-04T00:54:00.121Z,101173.27
2018-07-04T00:57:05.260Z,101171.41
2018-07-04T01:00:10.774Z,101173.69
2018-07-04T01:03:16.320Z,101160.66
2018-07-04T01:06:21.595Z,101162.90
2018-07-04T01:09:26.777Z,101158.14
2018-07-04T01:12:40.418Z,101150.94
2018-07-04T01:15:43.655Z,101149.41
2018-07-04T01:18:48.844Z,101147.72
2018-07-04T01:21:54.541Z,101138.50
2018-07-04T01:25:00.261Z,101139.07
2018-07-04T01:28:05.964Z,101130.48
2018-07-04T01:31:11.274Z,101129.97
2018-07-04T01:34:16.535Z,101130.73
2018-07-04T01:37:22.054Z,101124.91
2018-07-04T01:40:27.519Z,101117.77
2018-07-04T01:43:32.547Z,101118.46
2018-07-04T01:46:38.370Z,101111.04
2018-07-04T01:49:43.988Z,101109.62
2018-07-04T01:52:51.624Z,101113.93
2018-07-04T01:55:54.774Z,101111.17
2018-07-04T01:58:59.916Z,101118.94
2018-07-04T02:02:05.291Z,101115.91
2018-07-04T02:05:10.752Z,101108.33
2018-07-04T02:08:15.941Z,101111.28
2018-07-04T02:11:21.523Z,101108.42
2018-07-04T02:14:26.875Z,101115.29
2018-07-04T02:17:32.574Z,101110.53
2018-07-04T02:20:38.365Z,101109.25
2018-07-04T02:23:43.996Z,101110.97
2018-07-04T02:26:49.289Z,101107.50
2018-07-04T02:29:54.492Z,101111.09
2018-07-04T02:33:00.125Z,101099.45
2018-07-04T02:36:05.561Z,101095.69
2018-07-04T02:39:12.669Z,101104.43
2018-07-04T02:42:16.476Z,101107.72
2018-07-04T02:45:22.084Z,101099.50
2018-07-04T02:48:27.287Z,101104.98
2018-07-04T02:51:32.707Z,101105.15
2018-07-04T02:54:38.284Z,101090.63
2018-07-04T02:57:43.581Z,101096.14
2018-07-04T03:00:51.938Z,101093.23
2018-07-04T03:03:57.226Z,101090.66
2018-07-04T03:07:02.662Z,101094.13
2018-07-04T03:10:08.246Z,101090.35
2018-07-04T03:13:13.590Z,101092.95
2018-07-04T03:16:19.242Z,101093.63
2018-07-04T03:19:24.449Z,101096.48
2018-07-04T03:22:30.039Z,101091.92
2018-07-04T03:25:37.846Z,101091.06
2018-07-04T03:28:46.017Z,101089.55
2018-07-04T03:31:48.370Z,101089.03
2018-07-04T03:34:53.696Z,101089.20
2018-07-04T03:37:59.119Z,101085.13
2018-07-04T03:41:04.693Z,101082.89
2018-07-04T03:44:10.458Z,101084.41
2018-07-04T03:47:15.837Z,101079.47
2018-07-04T03:50:21.176Z,101082.55
2018-07-04T03:53:26.544Z,101072.62
2018-07-04T03:56:32.017Z,101071.27
2018-07-04T03:59:37.323Z,101071.58
2018-07-04T04:02:42.736Z,101079.06
2018-07-04T04:05:48.614Z,101081.84
2018-07-04T04:08:53.974Z,101091.77
2018-07-04T04:11:59.729Z,101088.50
2018-07-04T04:15:07.254Z,101087.45
2018-07-04T04:18:12.937Z,101087.10
2018-07-04T04:21:18.196Z,101082.89
2018-07-04T04:24:23.457Z,101088.20
2018-07-04T04:27:28.709Z,101084.44
2018-07-04T04:30:34.064Z,101080.14
2018-07-04T04:33:39.665Z,101081.81
2018-07-04T04:36:45.077Z,101078.38
2018-07-04T04:39:50.761Z,101083.99
2018-07-04T04:42:56.417Z,101080.09
2018-07-04T04:46:02.131Z,101079.53
2018-07-04T04:49:07.730Z,101078.50
2018-07-04T04:52:13.264Z,101074.16
2018-07-04T04:55:18.692Z,101078.22
2018-07-04T04:58:24.168Z,101080.67
2018-07-04T05:01:29.554Z,101079.26
2018-07-04T05:04:35.182Z,101074.50
2018-07-04T05:07:40.937Z,101080.27
2018-07-04T05:10:46.455Z,101079.41
2018-07-04T05:13:52.154Z,101088.66
2018-07-04T05:16:57.545Z,101084.09
2018-07-04T05:20:02.887Z,101080.27
2018-07-04T05:23:08.074Z,101070.97
2018-07-04T05:26:13.386Z,101073.19
2018-07-04T05:29:18.678Z,101070.38
2018-07-04T05:32:23.906Z,101063.87
2018-07-04T05:35:29.466Z,101061.16
2018-07-04T05:38:34.695Z,101059.73
2018-07-04T05:41:40.071Z,101054.97
2018-07-04T05:44:45.421Z,101054.77
2018-07-04T05:47:50.658Z,101054.56
2018-07-04T05:50:55.865Z,101052.05
2018-07-04T05:54:01.333Z,101047.27
2018-07-04T05:57:06.996Z,101048.27
2018-07-04T06:00:14.880Z,101047.23
2018-07-04T06:03:20.289Z,101045.95
2018-07-04T06:06:25.960Z,101052.41
2018-07-04T06:09:31.527Z,101050.98
2018-07-04T06:12:36.848Z,101046.24
2018-07-04T06:15:42.235Z,101048.88
2018-07-04T06:18:47.864Z,101043.13
2018-07-04T06:21:53.197Z,101049.70
2018-07-04T06:24:58.722Z,101057.79
2018-07-04T06:28:04.479Z,101066.36
2018-07-04T06:31:10.262Z,101056.90
2018-07-04T06:34:15.520Z,101052.67
2018-07-04T06:37:20.620Z,101047.24
2018-07-04T06:39:50.464Z,101049.17
2018-07-04T06:42:18.270Z,101048.56
2018-07-04T06:44:46.241Z,101046.22
2018-07-04T06:47:14.043Z,101048.08
2018-07-04T06:49:41.871Z,101047.92
2018-07-04T06:52:09.734Z,101045.84
2018-07-04T06:54:37.620Z,101044.89
2018-07-04T06:57:07.503Z,101037.44
2018-07-04T06:59:33.532Z,101040.52
2018-07-04T07:02:09.984Z,101039.39
2018-07-04T07:05:15.603Z,101046.83
2018-07-04T07:08:21.249Z,101044.94
2018-07-04T07:11:26.793Z,101042.43
2018-07-04T07:14:32.579Z,101042.42
2018-07-04T07:17:37.736Z,101042.98
2018-07-04T07:20:43.047Z,101042.05
2018-07-04T07:23:48.548Z,101042.12
2018-07-04T07:26:54.124Z,101048.85
2018-07-04T07:29:59.592Z,101037.34
2018-07-04T07:33:05.086Z,101034.84
2018-07-04T07:36:10.772Z,101031.19
2018-07-04T07:39:18.870Z,101023.94
2018-07-04T07:42:24.272Z,101028.06
2018-07-04T07:45:29.543Z,101030.63
2018-07-04T07:48:35.000Z,101027.81
2018-07-04T07:51:40.278Z,101019.45
2018-07-04T07:54:45.808Z,101009.23
2018-07-04T07:57:51.348Z,101006.80
2018-07-04T08:00:56.885Z,100999.37
2018-07-04T08:04:02.152Z,101009.94
2018-07-04T08:07:07.621Z,101013.83
2018-07-04T08:10:14.813Z,101017.47
2018-07-04T08:13:20.297Z,101018.76
2018-07-04T08:16:25.843Z,101017.29
2018-07-04T08:19:31.123Z,101017.59
2018-07-04T08:22:36.608Z,101013.48
2018-07-04T08:25:41.756Z,101017.64
2018-07-04T08:28:47.080Z,101020.66
2018-07-04T08:31:52.871Z,101018.59
2018-07-04T08:34:58.297Z,101019.19
2018-07-04T08:38:05.757Z,101009.12
2018-07-04T08:41:11.892Z,101012.58
2018-07-04T08:44:17.485Z,101003.44
2018-07-04T08:47:22.834Z,101004.19
2018-07-04T08:50:28.053Z,101000.27
2018-07-04T08:53:33.248Z,100991.73
2018-07-04T08:56:38.846Z,100993.85
2018-07-04T09:02:32.681Z,100998.33
2018-07-04T09:05:37.957Z,100999.27
2018-07-04T09:08:43.333Z,100994.09
2018-07-04T09:11:48.613Z,100998.66
2018-07-04T09:14:53.680Z,101008.34
2018-07-04T09:17:59.234Z,101002.51
2018-07-04T09:21:04.456Z,101003.05
2018-07-04T09:24:09.751Z,100993.91
2018-07-04T09:27:15.496Z,100997.08
2018-07-04T09:30:20.750Z,100988.91
2018-07-04T09:33:26.103Z,100988.88
2018-07-04T09:36:31.599Z,100988.58
2018-07-04T09:39:36.721Z,100984.66
2018-07-04T09:42:41.978Z,100981.33
2018-07-04T09:45:47.491Z,100981.17
2018-07-04T09:48:53.004Z,100986.08
2018-07-04T09:51:58.444Z,100980.66
2018-07-04T09:55:03.762Z,100973.25
2018-07-04T09:58:08.842Z,100973.75
2018-07-04T10:01:25.053Z,100978.21
2018-07-04T10:04:30.920Z,100978.69
2018-07-04T10:07:36.450Z,100972.37
2018-07-04T10:10:41.834Z,100970.52
2018-07-04T10:13:47.360Z,100971.83
2018-07-04T10:16:52.896Z,100964.88
2018-07-04T10:19:58.563Z,100971.61
2018-07-04T10:23:04.125Z,100973.16
2018-07-04T10:26:09.533Z,100968.22
2018-07-04T10:29:15.026Z,100962.75
2018-07-04T10:32:20.814Z,100956.87
2018-07-04T10:35:39.706Z,100955.77
2018-07-04T10:46:11.705Z,100954.50
2018-07-04T10:49:49.679Z,100950.09
2018-07-04T10:52:56.964Z,100953.15
2018-07-04T10:55:21.013Z,100948.83
2018-07-04T10:56:18.983Z,100948.70
2018-07-04T10:59:29.561Z,100949.58
2018-07-04T11:02:58.155Z,100944.79
2018-07-04T11:10:02.514Z,100939.00
2018-07-04T11:13:04.371Z,100936.22
2018-07-04T11:13:11.339Z,100934.23
2018-07-04T11:16:30.446Z,100938.61
2018-07-04T11:23:27.867Z,100928.71
2018-07-04T11:26:45.663Z,100925.15
2018-07-04T11:30:28.302Z,100916.79
2018-07-04T11:34:15.174Z,100914.02
2018-07-04T11:41:02.868Z,100904.77
2018-07-04T11:43:56.904Z,100903.46
2018-07-04T11:46:49.922Z,100905.05
2018-07-04T11:49:36.066Z,100898.76
2018-07-04T11:52:37.677Z,100891.48
2018-07-04T11:55:23.389Z,100889.69
2018-07-04T11:57:58.724Z,100891.18
2018-07-04T12:03:38.944Z,100897.29
2018-07-04T12:16:08.873Z,100877.77
2018-07-04T12:19:00.281Z,100884.02
2018-07-04T12:25:48.190Z,100884.79
2018-07-04T12:27:53.978Z,100881.71
2018-07-04T12:31:03.232Z,100890.36
2018-07-04T12:34:07.425Z,100890.56
2018-07-04T12:40:19.036Z,100887.60
2018-07-04T12:43:00.909Z,100880.33
2018-07-04T12:50:28.665Z,100889.28
2018-07-04T12:55:48.724Z,100884.52
2018-07-04T12:59:22.784Z,100885.03
2018-07-04T13:06:22.561Z,100887.14
2018-07-04T13:07:05.390Z,100879.03
2018-07-04T13:17:40.768Z,100872.02
2018-07-04T13:20:53.497Z,100875.32
2018-07-04T13:23:53.539Z,100877.50
2018-07-04T13:27:01.279Z,100872.34
2018-07-04T13:33:54.349Z,100856.60
2018-07-04T13:40:41.614Z,100854.08
2018-07-04T13:47:48.799Z,100858.41
2018-07-04T13:51:17.471Z,100858.53
2018-07-04T13:59:45.326Z,100868.52
2018-07-04T14:01:22.676Z,100867.12
2018-07-04T14:04:50.190Z,100865.55
2018-07-04T14:08:50.531Z,100864.47
2018-07-04T14:12:10.828Z,100870.00
2018-07-04T14:15:50.843Z,100864.37
2018-07-04T14:22:36.271Z,100864.75
2018-07-04T14:33:27.250Z,100871.03
2018-07-04T14:36:34.336Z,100866.20
2018-07-04T14:40:16.406Z,100859.73
2018-07-04T14:43:44.978Z,100856.38
2018-07-04T14:47:06.210Z,100850.23
2018-07-04T14:53:57.171Z,100846.55
2018-07-04T14:57:27.760Z,100848.98
2018-07-04T15:04:32.632Z,100833.27
2018-07-04T15:07:50.397Z,100838.61
2018-07-04T15:11:05.867Z,100842.81
2018-07-04T15:14:36.014Z,100832.09
2018-07-04T15:17:57.084Z,100828.72
2018-07-04T15:21:14.292Z,100816.14
2018-07-04T15:24:22.115Z,100826.63
2018-07-04T15:27:44.056Z,100827.22
2018-07-04T15:31:27.286Z,100826.10
2018-07-04T15:38:27.957Z,100817.44
2018-07-04T15:41:52.780Z,100815.47
2018-07-04T15:45:08.492Z,100816.37
2018-07-04T15:48:15.273Z,100821.41
2018-07-04T15:51:57.387Z,100821.13
2018-07-04T15:58:31.159Z,100824.18
2018-07-04T16:01:52.340Z,100816.89
2018-07-04T16:05:24.615Z,100821.86
2018-07-04T16:08:22.391Z,100819.20
2018-07-04T16:11:29.759Z,100817.24
2018-07-04T16:21:46.464Z,100819.70
2018-07-04T16:25:18.799Z,100822.23
2018-07-04T16:28:40.675Z,100822.50
2018-07-04T16:32:06.811Z,100823.79
2018-07-04T16:38:44.279Z,100818.98
2018-07-04T16:41:51.649Z,100816.71
2018-07-04T16:44:58.091Z,100820.06
2018-07-04T16:48:06.839Z,100823.64
2018-07-04T16:52:22.913Z,100824.39
2018-07-04T16:54:40.056Z,100818.80
2018-07-04T16:57:58.432Z,100821.57
2018-07-04T17:01:42.703Z,100827.95
2018-07-04T17:04:54.279Z,100827.59
2018-07-04T17:08:34.258Z,100830.03
2018-07-04T17:12:18.287Z,100832.70
2018-07-04T17:15:39.977Z,100834.56
2018-07-04T17:22:30.162Z,100836.70
2018-07-04T17:25:57.758Z,100836.61
2018-07-04T17:33:01.744Z,100810.76
2018-07-04T17:37:21.439Z,100837.26
2018-07-04T17:40:12.171Z,100846.44
2018-07-04T17:43:29.270Z,100839.09
2018-07-04T17:46:41.012Z,100841.11
2018-07-04T17:49:59.591Z,100845.00
2018-07-04T17:56:54.546Z,100834.73
2018-07-04T18:00:18.112Z,100831.31
2018-07-04T18:03:36.163Z,100830.92
2018-07-04T18:07:25.127Z,100829.75
2018-07-04T18:10:41.612Z,100827.63
2018-07-04T18:13:52.045Z,100831.45
2018-07-04T18:17:28.380Z,100835.14
2018-07-04T18:20:46.338Z,100830.66
2018-07-04T18:23:55.419Z,100830.42
2018-07-04T18:27:05.083Z,100834.13
2018-07-04T18:30:27.753Z,100838.47
2018-07-04T18:33:53.889Z,100840.72
2018-07-04T18:48:03.809Z,100828.31
2018-07-04T18:51:19.593Z,100836.34
2018-07-04T18:54:51.685Z,100833.93
2018-07-04T19:01:26.320Z,100839.89
2018-07-04T19:04:59.045Z,100834.11
2018-07-04T19:08:05.644Z,100834.05
2018-07-04T19:11:18.129Z,100842.59
2018-07-04T19:18:01.661Z,100849.53
2018-07-04T19:21:16.793Z,100835.56
2018-07-04T19:24:55.281Z,100839.64
2018-07-04T19:27:54.353Z,100844.52
2018-07-04T19:31:14.947Z,100844.52
2018-07-04T19:34:44.692Z,100845.69
2018-07-04T19:38:16.904Z,100847.07
2018-07-04T19:41:38.574Z,100844.91
2018-07-04T19:45:00.979Z,100850.59
2018-07-04T19:48:01.468Z,100851.16
2018-07-04T19:51:07.335Z,100859.94
2018-07-04T19:54:13.087Z,100856.12
2018-07-04T19:57:18.518Z,100860.71
2018-07-04T20:00:23.703Z,100862.41
2018-07-04T20:03:29.067Z,100863.01
2018-07-04T20:06:34.348Z,100868.27
2018-07-04T20:09:39.658Z,100872.42
2018-07-04T20:12:45.175Z,100872.11
2018-07-04T20:15:50.328Z,100871.07
2018-07-04T20:18:55.829Z,100860.06
2018-07-04T20:22:01.429Z,100855.37
2018-07-04T20:25:07.116Z,100853.90
2018-07-04T20:28:12.633Z,100855.11
2018-07-04T20:31:18.208Z,100852.41
2018-07-04T20:34:23.308Z,100854.39
2018-07-04T20:37:28.482Z,100861.64
2018-07-04T20:40:33.882Z,100866.52
2018-07-04T20:43:39.559Z,100859.66
2018-07-04T20:46:45.127Z,100856.45
2018-07-04T20:49:50.884Z,100851.27
2018-07-04T20:52:56.144Z,100850.79
2018-07-04T20:56:01.452Z,100850.73
2018-07-04T20:59:06.840Z,100859.78
2018-07-04T21:02:12.208Z,100857.59
2018-07-04T21:05:17.686Z,100851.80
2018-07-04T21:08:23.478Z,100846.64
2018-07-04T21:11:29.017Z,100845.29
2018-07-04T21:14:37.468Z,100842.84
2018-07-04T21:17:40.058Z,100842.42
2018-07-04T21:20:45.538Z,100855.41
2018-07-04T21:23:51.198Z,100854.59
2018-07-04T21:26:56.532Z,100853.95
2018-07-04T21:30:02.067Z,100866.48
2018-07-04T21:33:07.292Z,100877.54
2018-07-04T21:36:12.717Z,100878.94
2018-07-04T21:39:18.198Z,100888.59
2018-07-04T21:42:23.846Z,100899.43
2018-07-04T21:45:29.505Z,100910.67
2018-07-04T21:48:34.878Z,100914.81
2018-07-04T21:51:42.611Z,100916.90
2018-07-04T21:54:48.172Z,100913.86
2018-07-04T21:57:53.550Z,100920.71
2018-07-04T22:00:58.952Z,100931.19
2018-07-04T22:04:04.621Z,100939.45
2018-07-04T22:07:10.034Z,100945.05
2018-07-04T22:10:15.486Z,100937.42
2018-07-04T22:13:20.864Z,100926.59
2018-07-04T22:16:26.265Z,100931.01
2018-07-04T22:19:31.387Z,100927.28
2018-07-04T22:22:37.013Z,100928.37
2018-07-04T22:25:42.540Z,100925.16
2018-07-04T22:28:47.912Z,100925.16
2018-07-04T22:31:53.167Z,100925.23
2018-07-04T22:34:58.638Z,100931.67
2018-07-04T22:38:04.235Z,100923.86
2018-07-04T22:41:10.065Z,100928.47
2018-07-04T22:44:15.384Z,100926.04
2018-07-04T22:47:20.759Z,100919.36
2018-07-04T22:50:35.118Z,100914.13
2018-07-04T22:53:40.699Z,100911.25
2018-07-04T22:56:46.304Z,100913.80
2018-07-04T22:59:51.675Z,100922.23
2018-07-04T23:02:56.748Z,100923.34
2018-07-04T23:06:02.130Z,100928.17
2018-07-04T23:09:07.676Z,100928.36
2018-07-04T23:12:12.959Z,100901.80
2018-07-04T23:15:18.613Z,100918.41
2018-07-04T23:18:23.915Z,100914.25
2018-07-04T23:21:29.516Z,100921.00
2018-07-04T23:24:37.628Z,100915.01
2018-07-04T23:27:40.299Z,100911.77
2018-07-04T23:30:45.746Z,100913.04
2018-07-04T23:33:51.279Z,100909.38
2018-07-04T23:36:56.648Z,100909.13
2018-07-04T23:40:02.359Z,100904.70
2018-07-04T23:43:07.783Z,100904.13
2018-07-04T23:46:13.561Z,100907.33
2018-07-04T23:49:18.872Z,100909.70
2018-07-04T23:52:24.331Z,100903.50
2018-07-04T23:55:29.643Z,100908.99
2018-07-04T23:58:34.942Z,100909.46
